Mayview, Missouri
Current Conditions -  °F | °C
As of 4:55 AM on Friday 19 Dec 2014 (Local Time) from KRCM Reporting Station
Haze Haze  
Wind Chill: 32°   Ceiling: 200
Heat Index: 32°   Visibility: 1mi
Dew Point: 32°   Wind: 0mph
Humidity: 100%   Direction: NA
Pressure: 30.25"   Gusts: NA
Location:  39.05°N, 93.83°W
Report Text: KRCM 191055Z AUTO 00000KT 1SM BR OVC002 00/00 A3025 RMK AO2
Loading
Personal Weather Stations






























Interactive Weather Map New forecast layout! Learn more

10-Day Weather Forecast

Advertisements
Track Severe Weather on mobile